ARCT2: Red River, ARthur City

                                SHEF ID:       ARCT2     Red River at Arthur City, TX
STATION TYPE: Stream Gauge
Regulating: Stage = 27.00, Flow = 84609

PRECIP ELEVATION STAGE STAGE(2) RIV-FLOW BAT-LOAD
in ft ft ft cfs volt
Ccp-Rev Ccp-Rev Ccp-Rev Ccp-Rev Ccp-Rev Ccp-Rev
(America/Chicago)
03/27 00:00 0.00 ---- 4.80 ---- 1754 12.57
03/27 01:00 0.00 ---- 4.72 ---- 1668 12.57
03/27 02:00 0.00 ---- 4.66 ---- 1604 12.49
03/27 03:00 0.00 ---- 4.59 ---- 1531 12.49
03/27 04:00 0.00 ---- 4.59 ---- 1531 12.49
03/27 05:00 0.00 ---- 4.55 ---- 1490 12.49
03/27 06:00 0.00 ---- 4.50 ---- 1439 12.41
03/27 07:00 0.00 ---- 4.44 ---- 1379 12.41
03/27 08:00 0.00 ---- 4.43 ---- 1369 12.41
03/27 09:00 0.00 ---- 4.39 ---- 1330 12.81
03/27 10:00 0.00 ---- 4.35 ---- 1292 13.44
03/27 11:00 0.00 ---- 4.31 ---- 1254 14.24
03/27 12:00 0.00 ---- 4.16 ---- 1116 13.60
03/27 13:00 0.00 ---- 4.15 ---- 1107 13.44
03/27 14:00 0.00 ---- 4.11 ---- 1070 13.44
03/27 15:00 0.00 ---- 4.06 ---- 1025 13.44
03/27 16:00 0.00 ---- 4.10 ---- 1061 13.44
03/27 17:00 0.00 ---- 4.07 ---- 1034 13.44
03/27 18:00 0.00 ---- 3.96 ---- 937 13.21
03/27 19:00 0.00 ---- 3.95 ---- 929 13.05
03/27 20:00 0.00 ---- 3.95 ---- 929 12.65
03/27 21:00 0.00 ---- 3.96 ---- 937 12.57
03/27 22:00 0.00 ---- 3.99 ---- 963 12.57
03/27 23:00 0.00 ---- 3.95 ---- 929 12.49
Data processed at Sat 28Mar2026 04:30 GMT

NOTICE: If you are parsing this page

Please convert to using our Data API. Starting early 2026 we will be migrating to: https://water.usace.army.mil with modern pages rendered in JavaScript. When this migration completes you will no longer be able to scrape this page! CWMSDataAPI (CDA)

Timeseries IDs (TSIDs)

TSIDs used from left to right in the data table
ARTH.Precip-Inc.Total.1Hour.1Hour.Ccp-Rev
ARTH.Stage.Inst.1Hour.0.Ccp-Rev
ARTH.Stage-Alt.Inst.1Hour.0.Ccp-Rev
ARTH.Flow.Inst.1Hour.0.Ccp-Rev
ARTH.Volt-Battery Load.Inst.1Hour.0.Ccp-Rev

                            

All information presented herein is the property of the government of the United States of America and may be revised or deleted at any time without prior notice. Dissemination of this information without the expressed written consent of the Public Affairs Office, Tulsa District U.S. Army Corps of Engineers is strictly prohibited. These data are gathered electronically and, as presented, have NOT undergone any form of quality control. These data are NOT guaranteed to be valid or correct.